Time,TemperatureF,DewpointF,PressureIn,WindDirection,WindDirectionDegrees,WindSpeedMPH,WindSpeedGustMPH,Humidity,HourlyPrecipIn,Conditions,Clouds,dailyrainin,SoftwareType,DateUTC
2013-10-27 00:04:00,51.7,43.0,30.13,WNW,286,3.0,6.0,71,0.00,,,0.00,weatherlink.com 1.10,2013-10-27 04:04:00,
2013-10-27 00:19:00,51.2,42.0,30.13,WSW,243,2.0,5.0,70,0.00,,,0.00,weatherlink.com 1.10,2013-10-27 04:19:00,
2013-10-27 00:34:00,51.5,41.0,30.12,WNW,284,1.0,7.0,67,0.00,,,0.00,weatherlink.com 1.10,2013-10-27 04:34:00,
2013-10-27 00:49:00,51.3,40.0,30.12,West,270,1.0,5.0,66,0.00,,,0.00,weatherlink.com 1.10,2013-10-27 04:49:00,
2013-10-27 01:04:00,51.3,40.0,30.12,WSW,249,1.0,4.0,65,0.00,,,0.00,weatherlink.com 1.10,2013-10-27 05:04:00,
2013-10-27 01:19:00,51.0,40.0,30.12,WNW,285,1.0,3.0,66,0.00,,,0.00,weatherlink.com 1.10,2013-10-27 05:19:00,
2013-10-27 01:35:00,51.0,40.0,30.12,NW,313,1.0,5.0,65,0.00,,,0.00,weatherlink.com 1.10,2013-10-27 05:35:00,
2013-10-27 01:50:00,51.2,40.0,30.12,West,279,3.0,4.0,65,0.00,,,0.00,weatherlink.com 1.10,2013-10-27 05:50:00,
2013-10-27 02:05:00,51.2,40.0,30.11,West,279,2.0,4.0,66,0.00,,,0.00,weatherlink.com 1.10,2013-10-27 06:05:00,
2013-10-27 02:20:00,50.8,41.0,30.11,WNW,290,0.0,3.0,68,0.00,,,0.00,weatherlink.com 1.10,2013-10-27 06:20:00,
2013-10-27 02:35:00,50.6,40.0,30.10,West,278,1.0,4.0,68,0.00,,,0.00,weatherlink.com 1.10,2013-10-27 06:35:00,
2013-10-27 02:50:00,50.6,40.0,30.10,WNW,295,2.0,4.0,68,0.00,,,0.00,weatherlink.com 1.10,2013-10-27 06:50:00,
2013-10-27 03:05:00,50.7,41.0,30.09,West,259,0.0,3.0,69,0.00,,,0.00,weatherlink.com 1.10,2013-10-27 07:05:00,
2013-10-27 03:20:00,51.6,41.0,30.09,WSW,243,1.0,5.0,67,0.00,,,0.00,weatherlink.com 1.10,2013-10-27 07:20:00,
2013-10-27 03:35:00,52.3,41.0,30.09,WSW,247,1.0,4.0,65,0.00,,,0.00,weatherlink.com 1.10,2013-10-27 07:35:00,
2013-10-27 03:50:00,52.3,39.0,30.09,WSW,243,2.0,5.0,62,0.00,,,0.00,weatherlink.com 1.10,2013-10-27 07:50:00,
2013-10-27 04:05:00,52.3,39.0,30.08,West,260,1.0,6.0,62,0.00,,,0.00,weatherlink.com 1.10,2013-10-27 08:05:00,
2013-10-27 04:20:00,51.6,40.0,30.08,West,264,0.0,3.0,65,0.00,,,0.00,weatherlink.com 1.10,2013-10-27 08:20:00,
2013-10-27 04:35:00,51.0,40.0,30.07,WSW,239,0.0,4.0,65,0.00,,,0.00,weatherlink.com 1.10,2013-10-27 08:35:00,
2013-10-27 04:50:00,50.6,40.0,30.08,WNW,302,3.0,3.0,66,0.00,,,0.00,weatherlink.com 1.10,2013-10-27 08:50:00,
2013-10-27 05:05:00,49.9,39.0,30.09,West,269,1.0,4.0,66,0.00,,,0.00,weatherlink.com 1.10,2013-10-27 09:05:00,
2013-10-27 05:20:00,49.6,39.0,30.09,WNW,296,1.0,7.0,67,0.00,,,0.00,weatherlink.com 1.10,2013-10-27 09:20:00,
2013-10-27 05:35:00,49.1,39.0,30.09,West,271,3.0,4.0,68,0.00,,,0.00,weatherlink.com 1.10,2013-10-27 09:35:00,
2013-10-27 05:50:00,48.3,39.0,30.10,West,277,0.0,3.0,70,0.00,,,0.00,weatherlink.com 1.10,2013-10-27 09:50:00,
2013-10-27 06:05:00,47.9,39.0,30.10,West,262,1.0,3.0,71,0.00,,,0.00,weatherlink.com 1.10,2013-10-27 10:05:00,
2013-10-27 06:20:00,48.0,39.0,30.10,WNW,289,2.0,2.0,71,0.00,,,0.00,weatherlink.com 1.10,2013-10-27 10:20:00,
2013-10-27 06:35:00,48.5,39.0,30.10,WNW,285,1.0,3.0,70,0.00,,,0.00,weatherlink.com 1.10,2013-10-27 10:35:00,
2013-10-27 06:50:00,49.0,39.0,30.10,West,262,1.0,3.0,68,0.00,,,0.00,weatherlink.com 1.10,2013-10-27 10:50:00,
2013-10-27 07:05:00,49.2,39.0,30.10,West,277,0.0,3.0,69,0.00,,,0.00,weatherlink.com 1.10,2013-10-27 11:05:00,
2013-10-27 07:20:00,49.3,39.0,30.10,West,277,0.0,1.0,69,0.00,,,0.00,weatherlink.com 1.10,2013-10-27 11:20:00,
2013-10-27 07:35:00,49.2,40.0,30.10,West,278,1.0,1.0,71,0.00,,,0.00,weatherlink.com 1.10,2013-10-27 11:35:00,
2013-10-27 07:50:00,48.7,40.0,30.10,West,275,1.0,2.0,73,0.00,,,0.00,weatherlink.com 1.10,2013-10-27 11:50:00,
2013-10-27 08:05:00,49.3,41.0,30.11,WNW,292,1.0,2.0,73,0.00,,,0.00,weatherlink.com 1.10,2013-10-27 12:05:00,
2013-10-27 08:20:00,50.8,41.0,30.11,West,272,2.0,4.0,70,0.00,,,0.00,weatherlink.com 1.10,2013-10-27 12:20:00,
2013-10-27 08:35:00,51.8,41.0,30.12,WNW,300,1.0,5.0,67,0.00,,,0.00,weatherlink.com 1.10,2013-10-27 12:35:00,
2013-10-27 08:50:00,52.8,41.0,30.12,WNW,293,3.0,6.0,65,0.00,,,0.00,weatherlink.com 1.10,2013-10-27 12:50:00,
2013-10-27 09:05:00,54.0,41.0,30.12,WNW,288,1.0,8.0,62,0.00,,,0.00,weatherlink.com 1.10,2013-10-27 13:05:00,
2013-10-27 09:20:00,55.1,40.0,30.13,WNW,290,4.0,8.0,58,0.00,,,0.00,weatherlink.com 1.10,2013-10-27 13:20:00,
2013-10-27 09:35:00,55.4,42.0,30.13,West,260,3.0,8.0,61,0.00,,,0.00,weatherlink.com 1.10,2013-10-27 13:35:00,
2013-10-27 09:50:00,55.8,43.0,30.13,West,259,3.0,9.0,62,0.00,,,0.00,weatherlink.com 1.10,2013-10-27 13:50:00,
2013-10-27 10:05:00,56.5,42.0,30.14,NNW,327,3.0,8.0,59,0.00,,,0.00,weatherlink.com 1.10,2013-10-27 14:05:00,
2013-10-27 10:21:00,57.5,42.0,30.13,NNW,335,4.0,7.0,57,0.00,,,0.00,weatherlink.com 1.10,2013-10-27 14:21:00,
2013-10-27 10:36:00,58.1,44.0,30.13,West,269,2.0,7.0,59,0.00,,,0.00,weatherlink.com 1.10,2013-10-27 14:36:00,
2013-10-27 10:51:00,58.8,44.0,30.13,NNE,30,2.0,5.0,58,0.00,,,0.00,weatherlink.com 1.10,2013-10-27 14:51:00,
2013-10-27 11:06:00,59.6,43.0,30.14,NW,315,4.0,8.0,55,0.00,,,0.00,weatherlink.com 1.10,2013-10-27 15:06:00,
2013-10-27 11:21:00,60.2,44.0,30.13,NE,43,5.0,9.0,55,0.00,,,0.00,weatherlink.com 1.10,2013-10-27 15:21:00,
2013-10-27 11:36:00,61.3,45.0,30.13,NNE,32,4.0,10.0,55,0.00,,,0.00,weatherlink.com 1.10,2013-10-27 15:36:00,
2013-10-27 11:51:00,62.0,43.0,30.13,NNW,329,1.0,7.0,51,0.00,,,0.00,weatherlink.com 1.10,2013-10-27 15:51:00,
2013-10-27 12:06:00,61.4,42.0,30.13,NNE,33,5.0,13.0,50,0.00,,,0.00,weatherlink.com 1.10,2013-10-27 16:06:00,
2013-10-27 12:21:00,61.9,42.0,30.13,NE,46,4.0,9.0,48,0.00,,,0.00,weatherlink.com 1.10,2013-10-27 16:21:00,
2013-10-27 12:36:00,62.4,41.0,30.13,NE,45,7.0,10.0,46,0.00,,,0.00,weatherlink.com 1.10,2013-10-27 16:36:00,
2013-10-27 12:51:00,60.7,45.0,30.12,East,91,6.0,8.0,57,0.00,,,0.00,weatherlink.com 1.10,2013-10-27 16:51:00,
2013-10-27 13:06:00,60.5,45.0,30.11,East,86,5.0,6.0,58,0.00,,,0.00,weatherlink.com 1.10,2013-10-27 17:06:00,
2013-10-27 13:21:00,60.8,47.0,30.11,East,90,6.0,6.0,61,0.00,,,0.00,weatherlink.com 1.10,2013-10-27 17:21:00,
2013-10-27 13:36:00,61.7,47.0,30.10,ESE,108,4.0,6.0,58,0.00,,,0.00,weatherlink.com 1.10,2013-10-27 17:36:00,
2013-10-27 13:51:00,61.9,46.0,30.10,East,86,6.0,7.0,57,0.00,,,0.00,weatherlink.com 1.10,2013-10-27 17:51:00,
2013-10-27 14:06:00,61.6,46.0,30.09,East,80,5.0,6.0,58,0.00,,,0.00,weatherlink.com 1.10,2013-10-27 18:06:00,
2013-10-27 14:21:00,61.2,47.0,30.09,East,83,5.0,6.0,59,0.00,,,0.00,weatherlink.com 1.10,2013-10-27 18:21:00,
2013-10-27 14:36:00,61.2,47.0,30.09,East,84,6.0,7.0,61,0.00,,,0.00,weatherlink.com 1.10,2013-10-27 18:36:00,
2013-10-27 14:51:00,61.2,47.0,30.09,East,89,5.0,7.0,61,0.00,,,0.00,weatherlink.com 1.10,2013-10-27 18:51:00,
2013-10-27 15:06:00,61.3,47.0,30.09,East,79,5.0,5.0,60,0.00,,,0.00,weatherlink.com 1.10,2013-10-27 19:06:00,
2013-10-27 15:21:00,62.0,48.0,30.09,ESE,118,5.0,6.0,61,0.00,,,0.00,weatherlink.com 1.10,2013-10-27 19:21:00,
2013-10-27 15:36:00,61.9,48.0,30.09,East,100,5.0,7.0,60,0.00,,,0.00,weatherlink.com 1.10,2013-10-27 19:36:00,
2013-10-27 15:51:00,62.3,48.0,30.09,SE,125,5.0,6.0,59,0.00,,,0.00,weatherlink.com 1.10,2013-10-27 19:51:00,
2013-10-27 16:06:00,62.6,46.0,30.09,SE,133,3.0,5.0,56,0.00,,,0.00,weatherlink.com 1.10,2013-10-27 20:06:00,
2013-10-27 16:21:00,62.6,47.0,30.09,East,98,3.0,5.0,58,0.00,,,0.00,weatherlink.com 1.10,2013-10-27 20:21:00,
2013-10-27 16:36:00,61.7,48.0,30.09,East,79,5.0,6.0,62,0.00,,,0.00,weatherlink.com 1.10,2013-10-27 20:36:00,
2013-10-27 16:51:00,61.6,48.0,30.09,East,84,2.0,4.0,61,0.00,,,0.00,weatherlink.com 1.10,2013-10-27 20:51:00,
2013-10-27 17:06:00,62.2,48.0,30.10,East,100,3.0,4.0,61,0.00,,,0.00,weatherlink.com 1.10,2013-10-27 21:06:00,
2013-10-27 17:21:00,62.0,50.0,30.10,East,96,2.0,2.0,64,0.00,,,0.00,weatherlink.com 1.10,2013-10-27 21:21:00,
2013-10-27 17:36:00,61.4,51.0,30.10,SSE,150,1.0,2.0,68,0.00,,,0.00,weatherlink.com 1.10,2013-10-27 21:36:00,
2013-10-27 17:51:00,61.6,50.0,30.10,SSE,162,0.0,1.0,65,0.00,,,0.00,weatherlink.com 1.10,2013-10-27 21:51:00,
2013-10-27 18:06:00,60.8,50.0,30.10,SE,139,0.0,1.0,68,0.00,,,0.00,weatherlink.com 1.10,2013-10-27 22:06:00,
2013-10-27 18:21:00,58.9,51.0,30.10,SE,139,0.0,1.0,75,0.00,,,0.00,weatherlink.com 1.10,2013-10-27 22:21:00,
2013-10-27 18:36:00,58.1,51.0,30.11,SE,139,0.0,1.0,77,0.00,,,0.00,weatherlink.com 1.10,2013-10-27 22:36:00,
2013-10-27 18:51:00,57.0,50.0,30.11,SE,139,1.0,1.0,78,0.00,,,0.00,weatherlink.com 1.10,2013-10-27 22:51:00,
2013-10-27 19:06:00,56.6,50.0,30.12,SE,139,0.0,1.0,79,0.00,,,0.00,weatherlink.com 1.10,2013-10-27 23:06:00,
2013-10-27 19:21:00,56.3,50.0,30.12,SE,139,1.0,1.0,78,0.00,,,0.00,weatherlink.com 1.10,2013-10-27 23:21:00,
2013-10-27 19:36:00,56.1,49.0,30.13,SE,139,1.0,1.0,78,0.00,,,0.00,weatherlink.com 1.10,2013-10-27 23:36:00,
2013-10-27 19:51:00,56.5,48.0,30.13,SE,139,0.0,1.0,74,0.00,,,0.00,weatherlink.com 1.10,2013-10-27 23:51:00,
2013-10-27 20:06:00,56.1,48.0,30.13,SE,139,1.0,1.0,74,0.00,,,0.00,weatherlink.com 1.10,2013-10-28 00:06:00,
2013-10-27 20:21:00,56.4,48.0,30.13,SE,139,1.0,1.0,73,0.00,,,0.00,weatherlink.com 1.10,2013-10-28 00:21:00,
2013-10-27 20:36:00,56.2,47.0,30.14,SE,139,0.0,1.0,72,0.00,,,0.00,weatherlink.com 1.10,2013-10-28 00:36:00,
2013-10-27 20:51:00,56.2,47.0,30.14,SE,139,0.0,0.0,72,0.00,,,0.00,weatherlink.com 1.10,2013-10-28 00:51:00,
2013-10-27 21:06:00,56.3,47.0,30.14,SE,139,0.0,1.0,72,0.00,,,0.00,weatherlink.com 1.10,2013-10-28 01:06:00,
2013-10-27 21:21:00,55.6,47.0,30.14,SE,139,0.0,1.0,73,0.00,,,0.00,weatherlink.com 1.10,2013-10-28 01:21:00,
2013-10-27 21:36:00,55.8,48.0,30.15,SE,139,0.0,0.0,74,0.00,,,0.00,weatherlink.com 1.10,2013-10-28 01:36:00,
2013-10-27 21:51:00,56.5,49.0,30.16,SE,139,0.0,0.0,76,0.00,,,0.00,weatherlink.com 1.10,2013-10-28 01:51:00,
2013-10-27 22:07:00,56.5,49.0,30.16,SE,139,0.0,0.0,77,0.00,,,0.00,weatherlink.com 1.10,2013-10-28 02:07:00,
2013-10-27 22:22:00,55.9,49.0,30.17,SE,139,0.0,0.0,78,0.00,,,0.00,weatherlink.com 1.10,2013-10-28 02:22:00,
2013-10-27 22:37:00,56.4,50.0,30.17,SE,139,0.0,1.0,80,0.00,,,0.00,weatherlink.com 1.10,2013-10-28 02:37:00,
2013-10-27 22:52:00,56.4,51.0,30.18,SE,139,0.0,1.0,81,0.00,,,0.00,weatherlink.com 1.10,2013-10-28 02:52:00,
2013-10-27 23:07:00,56.3,51.0,30.17,SE,139,0.0,1.0,82,0.00,,,0.00,weatherlink.com 1.10,2013-10-28 03:07:00,
2013-10-27 23:22:00,56.4,52.0,30.17,SE,139,0.0,1.0,85,0.00,,,0.00,weatherlink.com 1.10,2013-10-28 03:22:00,
2013-10-27 23:37:00,56.0,51.0,30.17,SE,139,0.0,1.0,83,0.00,,,0.00,weatherlink.com 1.10,2013-10-28 03:37:00,
2013-10-27 23:52:00,55.9,51.0,30.17,SE,139,0.0,0.0,82,0.00,,,0.00,weatherlink.com 1.10,2013-10-28 03:52:00,